createdAt,value
2018-02-09T00:00:24.171Z,1015.75
2018-02-09T00:01:24.161Z,1015.75
2018-02-09T00:02:24.165Z,1015.77
2018-02-09T00:03:24.396Z,1015.76
2018-02-09T00:04:24.140Z,1015.72
2018-02-09T00:05:24.132Z,1015.70
2018-02-09T00:06:24.125Z,1015.73
2018-02-09T00:07:24.123Z,1015.74
2018-02-09T00:08:24.213Z,1015.71
2018-02-09T00:09:24.105Z,1015.75
2018-02-09T00:10:24.246Z,1015.75
2018-02-09T00:11:24.086Z,1015.75
2018-02-09T00:12:24.130Z,1015.76
2018-02-09T00:13:24.077Z,1015.75
2018-02-09T00:14:24.070Z,1015.76
2018-02-09T00:15:24.059Z,1015.74
2018-02-09T00:16:24.049Z,1015.75
2018-02-09T00:17:24.046Z,1015.77
2018-02-09T00:18:24.288Z,1015.73
2018-02-09T00:19:24.030Z,1015.74
2018-02-09T00:20:24.021Z,1015.75
2018-02-09T00:21:24.017Z,1015.70
2018-02-09T00:22:24.005Z,1015.73
2018-02-09T00:23:23.997Z,1015.71
2018-02-09T00:24:23.989Z,1015.69
2018-02-09T00:25:23.984Z,1015.72
2018-02-09T00:26:23.982Z,1015.75
2018-02-09T00:27:23.985Z,1015.71
2018-02-09T00:28:23.959Z,1015.69
2018-02-09T00:29:24.254Z,1015.73
2018-02-09T00:30:23.951Z,1015.74
2018-02-09T00:31:23.938Z,1015.75
2018-02-09T00:32:23.935Z,1015.74
2018-02-09T00:33:23.926Z,1015.74
2018-02-09T00:34:23.917Z,1015.76
2018-02-09T00:35:23.916Z,1015.72
2018-02-09T00:36:23.905Z,1015.71
2018-02-09T00:37:23.896Z,1015.76
2018-02-09T00:38:23.887Z,1015.78
2018-02-09T00:39:23.882Z,1015.74
2018-02-09T00:40:23.872Z,1015.79
2018-02-09T00:41:23.870Z,1015.78
2018-02-09T00:42:23.855Z,1015.76
2018-02-09T00:43:23.854Z,1015.77
2018-02-09T00:44:23.844Z,1015.79
2018-02-09T00:45:23.836Z,1015.78
2018-02-09T00:46:23.826Z,1015.78
2018-02-09T00:47:23.823Z,1015.78
2018-02-09T00:48:23.812Z,1015.77
2018-02-09T00:49:23.812Z,1015.72
2018-02-09T00:50:23.800Z,1015.74
2018-02-09T00:51:23.848Z,1015.76
2018-02-09T00:52:23.781Z,1015.71
2018-02-09T00:53:23.877Z,1015.72
2018-02-09T00:54:23.773Z,1015.76
2018-02-09T00:55:23.761Z,1015.71
2018-02-09T00:56:23.751Z,1015.71
2018-02-09T00:57:23.796Z,1015.73
2018-02-09T00:58:23.735Z,1015.73
2018-02-09T00:59:23.781Z,1015.70
2018-02-09T01:00:23.722Z,1015.72
2018-02-09T01:01:23.774Z,1015.72
2018-02-09T01:02:23.711Z,1015.70
2018-02-09T01:03:23.748Z,1015.70
2018-02-09T01:04:23.695Z,1015.74
2018-02-09T01:05:23.690Z,1015.73
2018-02-09T01:06:23.679Z,1015.71
2018-02-09T01:07:23.670Z,1015.69
2018-02-09T01:08:23.663Z,1015.73
2018-02-09T01:09:23.657Z,1015.72
2018-02-09T01:10:23.645Z,1015.70
2018-02-09T01:11:23.641Z,1015.72
2018-02-09T01:12:23.635Z,1015.73
2018-02-09T01:13:23.629Z,1015.73
2018-02-09T01:14:23.619Z,1015.75
2018-02-09T01:15:23.606Z,1015.76
2018-02-09T01:16:23.603Z,1015.72
2018-02-09T01:17:23.596Z,1015.75
2018-02-09T01:18:23.586Z,1015.75
2018-02-09T01:19:23.577Z,1015.74
2018-02-09T01:20:23.571Z,1015.73
2018-02-09T01:21:23.565Z,1015.73
2018-02-09T01:22:23.557Z,1015.74
2018-02-09T01:23:23.549Z,1015.71
2018-02-09T01:24:23.540Z,1015.68
2018-02-09T01:25:23.532Z,1015.72
2018-02-09T01:26:23.525Z,1015.68
2018-02-09T01:27:23.523Z,1015.67
2018-02-09T01:28:23.515Z,1015.65
2018-02-09T01:29:23.506Z,1015.63
2018-02-09T01:30:23.501Z,1015.65
2018-02-09T01:31:23.486Z,1015.64
2018-02-09T01:32:23.540Z,1015.69
2018-02-09T01:33:23.474Z,1015.66
2018-02-09T01:34:23.464Z,1015.65
2018-02-09T01:35:23.457Z,1015.60
2018-02-09T01:36:23.599Z,1015.59
2018-02-09T01:37:23.444Z,1015.57
2018-02-09T01:38:23.534Z,1015.57
2018-02-09T01:39:23.425Z,1015.57
2018-02-09T01:40:23.519Z,1015.57
2018-02-09T01:41:23.417Z,1015.59
2018-02-09T01:42:23.405Z,1015.56
2018-02-09T01:43:23.396Z,1015.57
2018-02-09T01:44:23.393Z,1015.57
2018-02-09T01:45:23.385Z,1015.56
2018-02-09T01:46:23.376Z,1015.54
2018-02-09T01:47:23.367Z,1015.53
2018-02-09T01:48:23.358Z,1015.52
2018-02-09T01:49:23.353Z,1015.50
2018-02-09T01:50:23.344Z,1015.47
2018-02-09T01:51:23.337Z,1015.43
2018-02-09T01:52:23.326Z,1015.40
2018-02-09T01:53:23.322Z,1015.39
2018-02-09T01:54:23.312Z,1015.42
2018-02-09T01:55:23.460Z,1015.40
2018-02-09T01:56:23.297Z,1015.37
2018-02-09T01:57:23.293Z,1015.37
2018-02-09T01:58:23.283Z,1015.35
2018-02-09T01:59:23.276Z,1015.36
2018-02-09T02:00:23.316Z,1015.36
2018-02-09T02:01:23.260Z,1015.40
2018-02-09T02:02:23.250Z,1015.38
2018-02-09T02:03:23.246Z,1015.38
2018-02-09T02:04:23.237Z,1015.36
2018-02-09T02:05:23.228Z,1015.36
2018-02-09T02:06:23.221Z,1015.31
2018-02-09T02:07:23.212Z,1015.33
2018-02-09T02:08:23.205Z,1015.32
2018-02-09T02:09:23.196Z,1015.27
2018-02-09T02:10:23.440Z,1015.29
2018-02-09T02:11:23.180Z,1015.28
2018-02-09T02:12:23.176Z,1015.25
2018-02-09T02:13:23.163Z,1015.29
2018-02-09T02:14:23.163Z,1015.25
2018-02-09T02:15:23.148Z,1015.27
2018-02-09T02:16:23.141Z,1015.29
2018-02-09T02:17:23.144Z,1015.26
2018-02-09T02:18:23.126Z,1015.27
2018-02-09T02:19:23.122Z,1015.26
2018-02-09T02:20:23.111Z,1015.19
2018-02-09T02:21:23.150Z,1015.25
2018-02-09T02:22:23.096Z,1015.22
2018-02-09T02:23:23.087Z,1015.20
2018-02-09T02:24:23.081Z,1015.19
2018-02-09T02:25:23.071Z,1015.17
2018-02-09T02:26:23.064Z,1015.17
2018-02-09T02:27:23.059Z,1015.19
2018-02-09T02:28:23.049Z,1015.18
2018-02-09T02:29:23.043Z,1015.19
2018-02-09T02:30:23.033Z,1015.16
2018-02-09T02:31:23.027Z,1015.16
2018-02-09T02:32:23.017Z,1015.14
2018-02-09T02:33:23.011Z,1015.15
2018-02-09T02:34:23.005Z,1015.10
2018-02-09T02:35:22.995Z,1015.08
2018-02-09T02:36:22.991Z,1015.12
2018-02-09T02:37:22.978Z,1015.11
2018-02-09T02:38:22.973Z,1015.09
2018-02-09T02:39:22.963Z,1015.10
2018-02-09T02:40:22.956Z,1015.10
2018-02-09T02:41:22.947Z,1015.14
2018-02-09T02:42:22.946Z,1015.13
2018-02-09T02:43:22.935Z,1015.16
2018-02-09T02:44:22.924Z,1015.13
2018-02-09T02:45:22.918Z,1015.12
2018-02-09T02:46:22.917Z,1015.10
2018-02-09T02:47:22.899Z,1015.08
2018-02-09T02:48:22.898Z,1015.09
2018-02-09T02:49:22.887Z,1015.06
2018-02-09T02:50:22.884Z,1015.05
2018-02-09T02:51:22.871Z,1015.06
2018-02-09T02:52:22.869Z,1015.11
2018-02-09T02:53:22.857Z,1015.04
2018-02-09T02:54:22.847Z,1015.07
2018-02-09T02:55:22.837Z,1015.02
2018-02-09T02:56:22.831Z,1015.04
2018-02-09T02:57:22.821Z,1015.04
2018-02-09T02:58:22.825Z,1015.05
2018-02-09T02:59:22.806Z,1015.02
2018-02-09T03:00:22.801Z,1015.04
2018-02-09T03:01:22.792Z,1015.03
2018-02-09T03:02:22.785Z,1015.04
2018-02-09T03:03:22.780Z,1015.02
2018-02-09T03:04:22.770Z,1015.02
2018-02-09T03:05:22.773Z,1015.01
2018-02-09T03:06:22.760Z,1014.99
2018-02-09T03:07:22.747Z,1014.99
2018-02-09T03:08:22.737Z,1014.93
2018-02-09T03:09:22.738Z,1014.92
2018-02-09T03:10:22.721Z,1014.93
2018-02-09T03:11:22.712Z,1014.92
2018-02-09T03:12:22.705Z,1014.91
2018-02-09T03:13:22.703Z,1014.95
2018-02-09T03:14:22.689Z,1014.90
2018-02-09T03:15:22.683Z,1014.86
2018-02-09T03:16:22.676Z,1014.87
2018-02-09T03:17:22.672Z,1014.89
2018-02-09T03:18:22.660Z,1014.87
2018-02-09T03:19:22.651Z,1014.85
2018-02-09T03:20:22.648Z,1014.81
2018-02-09T03:21:22.638Z,1014.84
2018-02-09T03:22:22.626Z,1014.80
2018-02-09T03:23:22.617Z,1014.77
2018-02-09T03:24:22.615Z,1014.78
2018-02-09T03:25:22.601Z,1014.72
2018-02-09T03:26:22.594Z,1014.71
2018-02-09T03:27:22.589Z,1014.69
2018-02-09T03:28:22.581Z,1014.67
2018-02-09T03:29:22.572Z,1014.68
2018-02-09T03:30:22.565Z,1014.67
2018-02-09T03:31:22.552Z,1014.65
2018-02-09T03:32:22.546Z,1014.64
2018-02-09T03:33:22.537Z,1014.67
2018-02-09T03:34:22.536Z,1014.66
2018-02-09T03:35:22.520Z,1014.68
2018-02-09T03:36:22.512Z,1014.66
2018-02-09T03:37:22.505Z,1014.68
2018-02-09T03:38:22.502Z,1014.68
2018-02-09T03:39:22.487Z,1014.67
2018-02-09T03:40:22.483Z,1014.61
2018-02-09T03:41:22.722Z,1014.70
2018-02-09T03:42:22.464Z,1014.66
2018-02-09T03:43:22.455Z,1014.66
2018-02-09T03:44:22.447Z,1014.64
2018-02-09T03:45:22.441Z,1014.62
2018-02-09T03:46:22.442Z,1014.63
2018-02-09T03:47:22.427Z,1014.66
2018-02-09T03:48:22.416Z,1014.58
2018-02-09T03:49:22.407Z,1014.62
2018-02-09T03:50:22.397Z,1014.61
2018-02-09T03:51:22.389Z,1014.59
2018-02-09T03:52:22.387Z,1014.57
2018-02-09T03:53:22.375Z,1014.60
2018-02-09T03:54:22.367Z,1014.57
2018-02-09T03:55:22.366Z,1014.58
2018-02-09T03:56:22.355Z,1014.59
2018-02-09T03:57:22.341Z,1014.58
2018-02-09T03:58:22.332Z,1014.63
2018-02-09T03:59:22.325Z,1014.67
2018-02-09T04:00:22.316Z,1014.64
2018-02-09T04:01:22.309Z,1014.66
2018-02-09T04:02:22.299Z,1014.67
2018-02-09T04:03:22.293Z,1014.61
2018-02-09T04:04:22.285Z,1014.64
2018-02-09T04:05:22.277Z,1014.66
2018-02-09T04:06:22.519Z,1014.72
2018-02-09T04:07:22.264Z,1014.67
2018-02-09T04:08:22.254Z,1014.67
2018-02-09T04:09:22.246Z,1014.69
2018-02-09T04:10:22.236Z,1014.68
2018-02-09T04:11:22.276Z,1014.66
2018-02-09T04:12:22.221Z,1014.64
2018-02-09T04:13:22.216Z,1014.67
2018-02-09T04:14:22.206Z,1014.62
2018-02-09T04:15:22.198Z,1014.68
2018-02-09T04:16:22.189Z,1014.67
2018-02-09T04:17:22.190Z,1014.61
2018-02-09T04:18:22.173Z,1014.63
2018-02-09T04:19:22.161Z,1014.62
2018-02-09T04:20:22.157Z,1014.57
2018-02-09T04:21:22.193Z,1014.65
2018-02-09T04:22:22.135Z,1014.60
2018-02-09T04:23:22.126Z,1014.54
2018-02-09T04:24:22.117Z,1014.55
2018-02-09T04:25:22.109Z,1014.57
2018-02-09T04:26:22.103Z,1014.62
2018-02-09T04:27:22.090Z,1014.63
2018-02-09T04:28:22.082Z,1014.62
2018-02-09T04:29:22.075Z,1014.62
2018-02-09T04:30:22.064Z,1014.61
2018-02-09T04:31:22.115Z,1014.61
2018-02-09T04:32:22.048Z,1014.61
2018-02-09T04:33:22.042Z,1014.65
2018-02-09T04:34:22.038Z,1014.60
2018-02-09T04:35:22.020Z,1014.62
2018-02-09T04:36:22.017Z,1014.60
2018-02-09T04:37:22.004Z,1014.54
2018-02-09T04:38:21.994Z,1014.59
2018-02-09T04:39:21.988Z,1014.55
2018-02-09T04:40:21.978Z,1014.58
2018-02-09T04:41:21.974Z,1014.58
2018-02-09T04:42:21.971Z,1014.55
2018-02-09T04:43:21.956Z,1014.57
2018-02-09T04:44:22.009Z,1014.52
2018-02-09T04:45:21.937Z,1014.56
2018-02-09T04:46:21.934Z,1014.56
2018-02-09T04:47:21.919Z,1014.58
2018-02-09T04:48:21.964Z,1014.60
2018-02-09T04:49:21.903Z,1014.58
2018-02-09T04:50:21.902Z,1014.58
2018-02-09T04:51:21.885Z,1014.59
2018-02-09T04:52:22.026Z,1014.59
2018-02-09T04:53:21.869Z,1014.60
2018-02-09T04:54:21.911Z,1014.60
2018-02-09T04:55:21.860Z,1014.57
2018-02-09T04:56:21.841Z,1014.59
2018-02-09T04:57:21.838Z,1014.57
2018-02-09T04:58:22.088Z,1014.58
2018-02-09T04:59:21.818Z,1014.57
2018-02-09T05:00:21.950Z,1014.59
2018-02-09T05:01:21.803Z,1014.61
2018-02-09T05:02:22.090Z,1014.57
2018-02-09T05:03:21.787Z,1014.59
2018-02-09T05:04:21.777Z,1014.55
2018-02-09T05:05:21.765Z,1014.53
2018-02-09T05:06:21.756Z,1014.54
2018-02-09T05:07:21.752Z,1014.53
2018-02-09T05:08:21.745Z,1014.53
2018-02-09T05:09:21.736Z,1014.52
2018-02-09T05:10:21.730Z,1014.57
2018-02-09T05:11:21.716Z,1014.53
2018-02-09T05:12:21.716Z,1014.53
2018-02-09T05:13:21.700Z,1014.54
2018-02-09T05:14:21.696Z,1014.53
2018-02-09T05:15:21.686Z,1014.52
2018-02-09T05:16:21.679Z,1014.53
2018-02-09T05:17:21.668Z,1014.50
2018-02-09T05:18:21.656Z,1014.52
2018-02-09T05:19:21.650Z,1014.48
2018-02-09T05:20:21.637Z,1014.50
2018-02-09T05:21:21.631Z,1014.47
2018-02-09T05:22:21.623Z,1014.48
2018-02-09T05:23:21.615Z,1014.45
2018-02-09T05:24:21.605Z,1014.51
2018-02-09T05:25:21.596Z,1014.52
2018-02-09T05:26:21.591Z,1014.51
2018-02-09T05:27:21.583Z,1014.50
2018-02-09T05:28:21.576Z,1014.49
2018-02-09T05:29:21.567Z,1014.49
2018-02-09T05:30:21.558Z,1014.44
2018-02-09T05:31:21.546Z,1014.45
2018-02-09T05:32:21.536Z,1014.44
2018-02-09T05:33:21.538Z,1014.45
2018-02-09T05:34:21.519Z,1014.45
2018-02-09T05:35:21.516Z,1014.43
2018-02-09T05:36:21.504Z,1014.46
2018-02-09T05:37:21.494Z,1014.40
2018-02-09T05:38:21.486Z,1014.41
2018-02-09T05:39:21.553Z,1014.42
2018-02-09T05:40:21.472Z,1014.42
2018-02-09T05:41:21.659Z,1014.43
2018-02-09T05:42:21.454Z,1014.41
2018-02-09T05:43:21.447Z,1014.43
2018-02-09T05:44:21.439Z,1014.47
2018-02-09T05:45:21.531Z,1014.42
2018-02-09T05:46:21.426Z,1014.39
2018-02-09T05:47:21.410Z,1014.41
2018-02-09T05:48:21.403Z,1014.41
2018-02-09T05:49:21.394Z,1014.36
2018-02-09T05:50:21.385Z,1014.37
2018-02-09T05:51:21.380Z,1014.37
2018-02-09T05:52:21.617Z,1014.36
2018-02-09T05:53:21.365Z,1014.31
2018-02-09T05:54:21.353Z,1014.33
2018-02-09T05:55:21.340Z,1014.34
2018-02-09T05:56:21.339Z,1014.31
2018-02-09T05:57:21.326Z,1014.28
2018-02-09T05:58:21.319Z,1014.31
2018-02-09T05:59:21.317Z,1014.27
2018-02-09T06:00:21.302Z,1014.25
2018-02-09T06:01:21.293Z,1014.27
2018-02-09T06:02:21.284Z,1014.23
2018-02-09T06:03:21.277Z,1014.26
2018-02-09T06:04:21.265Z,1014.26
2018-02-09T06:05:21.256Z,1014.25
2018-02-09T06:06:21.249Z,1014.25
2018-02-09T06:07:21.238Z,1014.23
2018-02-09T06:08:21.249Z,1014.26
2018-02-09T06:09:21.222Z,1014.24
2018-02-09T06:10:21.215Z,1014.24
2018-02-09T06:11:21.206Z,1014.22
2018-02-09T06:12:21.196Z,1014.23
2018-02-09T06:13:21.190Z,1014.21
2018-02-09T06:14:21.184Z,1014.21
2018-02-09T06:15:21.178Z,1014.21
2018-02-09T06:16:21.163Z,1014.15
2018-02-09T06:17:21.158Z,1014.17
2018-02-09T06:18:21.152Z,1014.18
2018-02-09T06:19:21.137Z,1014.16
2018-02-09T06:20:21.127Z,1014.18
2018-02-09T06:21:21.177Z,1014.16
2018-02-09T06:22:21.173Z,1014.16
2018-02-09T06:23:21.102Z,1014.16
2018-02-09T06:24:21.100Z,1014.13
2018-02-09T06:25:21.090Z,1014.17
2018-02-09T06:26:21.084Z,1014.16
2018-02-09T06:27:21.077Z,1014.18
2018-02-09T06:28:21.059Z,1014.18
2018-02-09T06:29:21.053Z,1014.18
2018-02-09T06:30:21.043Z,1014.20
2018-02-09T06:31:21.072Z,1014.24
2018-02-09T06:32:21.039Z,1014.20
2018-02-09T06:33:21.020Z,1014.21
2018-02-09T06:34:21.021Z,1014.23
2018-02-09T06:35:21.004Z,1014.25
2018-02-09T06:36:20.992Z,1014.26
2018-02-09T06:37:20.988Z,1014.21
2018-02-09T06:38:20.976Z,1014.21
2018-02-09T06:39:20.969Z,1014.20
2018-02-09T06:40:20.958Z,1014.18
2018-02-09T06:41:20.950Z,1014.24
2018-02-09T06:42:20.943Z,1014.24
2018-02-09T06:43:20.943Z,1014.20
2018-02-09T06:44:20.927Z,1014.19
2018-02-09T06:45:20.916Z,1014.18
2018-02-09T06:46:20.910Z,1014.17
2018-02-09T06:47:20.905Z,1014.17
2018-02-09T06:48:20.895Z,1014.16
2018-02-09T06:49:20.887Z,1014.14
2018-02-09T06:50:20.873Z,1014.14
2018-02-09T06:51:20.863Z,1014.16
2018-02-09T06:52:20.865Z,1014.18
2018-02-09T06:53:20.851Z,1014.19
2018-02-09T06:54:20.842Z,1014.20
2018-02-09T06:55:20.831Z,1014.20
2018-02-09T06:56:20.827Z,1014.22
2018-02-09T06:57:20.817Z,1014.16
2018-02-09T06:58:20.807Z,1014.22
2018-02-09T06:59:20.799Z,1014.21
2018-02-09T07:00:20.792Z,1014.24
2018-02-09T07:01:20.779Z,1014.24
2018-02-09T07:02:20.780Z,1014.24
2018-02-09T07:03:20.764Z,1014.24
2018-02-09T07:04:20.754Z,1014.22
2018-02-09T07:05:20.745Z,1014.23
2018-02-09T07:06:20.737Z,1014.22
2018-02-09T07:07:20.728Z,1014.17
2018-02-09T07:08:20.719Z,1014.19
2018-02-09T07:09:20.716Z,1014.20
2018-02-09T07:10:20.702Z,1014.17
2018-02-09T07:11:20.696Z,1014.21
2018-02-09T07:12:20.686Z,1014.20
2018-02-09T07:13:20.684Z,1014.19
2018-02-09T07:14:20.670Z,1014.22
2018-02-09T07:15:20.696Z,1014.19
2018-02-09T07:16:20.654Z,1014.23
2018-02-09T07:17:20.645Z,1014.24
2018-02-09T07:18:20.638Z,1014.25
2018-02-09T07:19:20.627Z,1014.28
2018-02-09T07:20:20.617Z,1014.29
2018-02-09T07:21:20.619Z,1014.31
2018-02-09T07:22:20.603Z,1014.30
2018-02-09T07:23:20.600Z,1014.27
2018-02-09T07:24:20.587Z,1014.32
2018-02-09T07:25:20.575Z,1014.28
2018-02-09T07:26:20.566Z,1014.27
2018-02-09T07:27:20.556Z,1014.29
2018-02-09T07:28:20.550Z,1014.27
2018-02-09T07:29:20.540Z,1014.29
2018-02-09T07:30:20.534Z,1014.31
2018-02-09T07:31:20.529Z,1014.26
2018-02-09T07:32:20.515Z,1014.29
2018-02-09T07:33:20.758Z,1014.27
2018-02-09T07:34:20.499Z,1014.29
2018-02-09T07:35:20.492Z,1014.30
2018-02-09T07:36:20.487Z,1014.27
2018-02-09T07:37:20.475Z,1014.28
2018-02-09T07:38:20.466Z,1014.27
2018-02-09T07:39:20.456Z,1014.23
2018-02-09T07:40:20.448Z,1014.21
2018-02-09T07:41:20.438Z,1014.23
2018-02-09T07:42:20.430Z,1014.23
2018-02-09T07:43:20.432Z,1014.21
2018-02-09T07:44:20.409Z,1014.22
2018-02-09T07:45:20.402Z,1014.23
2018-02-09T07:46:20.396Z,1014.24
2018-02-09T07:47:20.387Z,1014.22
2018-02-09T07:48:20.375Z,1014.21
2018-02-09T07:49:20.422Z,1014.23
2018-02-09T07:50:20.367Z,1014.25
2018-02-09T07:51:20.355Z,1014.19
2018-02-09T07:52:20.345Z,1014.22
2018-02-09T07:53:20.336Z,1014.15
2018-02-09T07:54:20.331Z,1014.17
2018-02-09T07:55:20.563Z,1014.18
2018-02-09T07:56:20.557Z,1014.19
2018-02-09T07:57:20.302Z,1014.17
2018-02-09T07:58:20.308Z,1014.18
2018-02-09T07:59:20.275Z,1014.10
2018-02-09T08:00:20.271Z,1014.09
2018-02-09T08:01:20.262Z,1014.09
2018-02-09T08:02:20.251Z,1014.08
2018-02-09T08:03:20.256Z,1014.05
2018-02-09T08:04:20.237Z,1014.06
2018-02-09T08:05:20.225Z,1014.08
2018-02-09T08:06:20.216Z,1014.05
2018-02-09T08:07:20.207Z,1014.04
2018-02-09T08:08:20.200Z,1014.02
2018-02-09T08:09:20.191Z,1014.03
2018-02-09T08:10:20.184Z,1014.04
2018-02-09T08:11:20.170Z,1014.00
2018-02-09T08:12:20.165Z,1014.00
2018-02-09T08:13:20.409Z,1013.98
2018-02-09T08:14:20.172Z,1013.98
2018-02-09T08:15:20.148Z,1013.97
2018-02-09T08:16:20.128Z,1013.96
2018-02-09T08:17:20.122Z,1013.98
2018-02-09T08:18:20.266Z,1013.95
2018-02-09T08:19:20.106Z,1013.96
2018-02-09T08:20:20.200Z,1013.98
2018-02-09T08:21:20.085Z,1013.91
2018-02-09T08:22:20.110Z,1013.96
2018-02-09T08:23:20.066Z,1013.94
2018-02-09T08:24:20.138Z,1013.98
2018-02-09T08:25:20.059Z,1013.96
2018-02-09T08:26:20.090Z,1013.93
2018-02-09T08:27:20.027Z,1013.94
2018-02-09T08:28:20.025Z,1013.92
2018-02-09T08:29:20.011Z,1013.94
2018-02-09T08:30:20.015Z,1013.90
2018-02-09T08:31:20.003Z,1013.91
2018-02-09T08:32:19.985Z,1013.93
2018-02-09T08:33:19.977Z,1013.93
2018-02-09T08:34:19.973Z,1013.92
2018-02-09T08:35:19.958Z,1013.93
2018-02-09T08:36:19.952Z,1013.97
2018-02-09T08:37:19.942Z,1014.00
2018-02-09T08:38:19.936Z,1013.97
2018-02-09T08:39:19.924Z,1013.97
2018-02-09T08:40:19.919Z,1013.97
2018-02-09T08:41:19.911Z,1013.98
2018-02-09T08:42:19.902Z,1013.95
2018-02-09T08:43:19.887Z,1013.94
2018-02-09T08:44:19.887Z,1013.96
2018-02-09T08:45:19.870Z,1013.95
2018-02-09T08:46:19.864Z,1013.93
2018-02-09T08:47:19.852Z,1013.91
2018-02-09T08:48:19.845Z,1013.91
2018-02-09T08:49:19.838Z,1013.92
2018-02-09T08:50:19.831Z,1013.93
2018-02-09T08:51:19.828Z,1013.88
2018-02-09T08:52:19.815Z,1013.91
2018-02-09T08:53:19.802Z,1013.88
2018-02-09T08:54:19.792Z,1013.88
2018-02-09T08:55:19.784Z,1013.90
2018-02-09T08:56:19.785Z,1013.89
2018-02-09T08:57:19.769Z,1013.90
2018-02-09T08:58:19.762Z,1013.84
2018-02-09T08:59:19.765Z,1013.83
2018-02-09T09:00:19.747Z,1013.81
2018-02-09T09:01:19.904Z,1013.84
2018-02-09T09:02:19.731Z,1013.82
2018-02-09T09:03:19.809Z,1013.80
2018-02-09T09:04:19.705Z,1013.76
2018-02-09T09:05:19.695Z,1013.80
2018-02-09T09:06:19.697Z,1013.79
2018-02-09T09:07:19.825Z,1013.78
2018-02-09T09:08:19.681Z,1013.71
2018-02-09T09:09:19.724Z,1013.74
2018-02-09T09:10:19.660Z,1013.74
2018-02-09T09:11:19.645Z,1013.76
2018-02-09T09:12:19.636Z,1013.75
2018-02-09T09:13:19.678Z,1013.74
2018-02-09T09:14:19.623Z,1013.76
2018-02-09T09:15:19.612Z,1013.75
2018-02-09T09:16:19.597Z,1013.74
2018-02-09T09:17:19.642Z,1013.76
2018-02-09T09:18:19.584Z,1013.73
2018-02-09T09:19:19.590Z,1013.73
2018-02-09T09:20:19.617Z,1013.74
2018-02-09T09:21:19.559Z,1013.71
2018-02-09T09:22:19.546Z,1013.75
2018-02-09T09:23:19.598Z,1013.69
2018-02-09T09:24:19.530Z,1013.74
2018-02-09T09:25:19.519Z,1013.71
2018-02-09T09:26:19.512Z,1013.69
2018-02-09T09:27:19.503Z,1013.70
2018-02-09T09:28:19.500Z,1013.66
2018-02-09T09:29:19.486Z,1013.64
2018-02-09T09:30:19.489Z,1013.68
2018-02-09T09:31:19.472Z,1013.64
2018-02-09T09:32:19.464Z,1013.65
2018-02-09T09:33:19.453Z,1013.66
2018-02-09T09:34:19.494Z,1013.69
2018-02-09T09:35:19.434Z,1013.66
2018-02-09T09:36:19.424Z,1013.62
2018-02-09T09:37:19.419Z,1013.64
2018-02-09T09:38:19.412Z,1013.61
2018-02-09T09:39:19.403Z,1013.63
2018-02-09T09:40:19.396Z,1013.58
2018-02-09T09:41:19.385Z,1013.58
2018-02-09T09:42:19.376Z,1013.59
2018-02-09T09:43:19.374Z,1013.57
2018-02-09T09:44:19.368Z,1013.56
2018-02-09T09:45:19.352Z,1013.58
2018-02-09T09:46:19.344Z,1013.53
2018-02-09T09:47:19.332Z,1013.58
2018-02-09T09:48:19.626Z,1013.57
2018-02-09T09:49:19.319Z,1013.58
2018-02-09T09:50:19.317Z,1013.53
2018-02-09T09:51:19.304Z,1013.59
2018-02-09T09:52:19.300Z,1013.54
2018-02-09T09:53:19.593Z,1013.52
2018-02-09T09:54:19.286Z,1013.51
2018-02-09T09:55:19.272Z,1013.50
2018-02-09T09:56:19.313Z,1013.54
2018-02-09T09:57:19.253Z,1013.51
2018-02-09T09:58:19.497Z,1013.48
2018-02-09T09:59:19.235Z,1013.48
2018-02-09T10:00:19.288Z,1013.50
2018-02-09T10:01:19.224Z,1013.51
2018-02-09T10:02:19.216Z,1013.48
2018-02-09T10:03:19.451Z,1013.47
2018-02-09T10:04:19.196Z,1013.48
2018-02-09T10:05:19.187Z,1013.53
2018-02-09T10:06:19.177Z,1013.46
2018-02-09T10:07:19.184Z,1013.44
2018-02-09T10:08:19.425Z,1013.44
2018-02-09T10:09:19.157Z,1013.44
2018-02-09T10:10:19.148Z,1013.42
2018-02-09T10:11:19.137Z,1013.41
2018-02-09T10:12:19.129Z,1013.41
2018-02-09T10:13:19.374Z,1013.32
2018-02-09T10:14:19.125Z,1013.34
2018-02-09T10:15:19.116Z,1013.27
2018-02-09T10:16:19.096Z,1013.30
2018-02-09T10:17:19.091Z,1013.27
2018-02-09T10:18:19.330Z,1013.28
2018-02-09T10:19:19.076Z,1013.24
2018-02-09T10:20:19.067Z,1013.26
2018-02-09T10:21:19.068Z,1013.28
2018-02-09T10:22:19.051Z,1013.27
2018-02-09T10:23:19.392Z,1013.27
2018-02-09T10:24:19.034Z,1013.25
2018-02-09T10:25:19.031Z,1013.27
2018-02-09T10:26:19.019Z,1013.21
2018-02-09T10:27:19.022Z,1013.20
2018-02-09T10:28:19.254Z,1013.15
2018-02-09T10:29:18.997Z,1013.17
2018-02-09T10:30:18.983Z,1013.12
2018-02-09T10:31:18.977Z,1013.14
2018-02-09T10:32:18.972Z,1013.14
2018-02-09T10:33:19.210Z,1013.10
2018-02-09T10:34:18.956Z,1013.11
2018-02-09T10:35:18.945Z,1013.14
2018-02-09T10:36:18.935Z,1013.10
2018-02-09T10:37:18.929Z,1013.12
2018-02-09T10:38:19.174Z,1013.15
2018-02-09T10:39:18.911Z,1013.08
2018-02-09T10:40:18.915Z,1013.08
2018-02-09T10:41:18.899Z,1013.09
2018-02-09T10:42:18.891Z,1013.07
2018-02-09T10:43:19.134Z,1013.06
2018-02-09T10:44:18.879Z,1013.02
2018-02-09T10:45:18.874Z,1013.04
2018-02-09T10:46:18.857Z,1013.07
2018-02-09T10:47:18.847Z,1013.01
2018-02-09T10:48:19.096Z,1012.98
2018-02-09T10:49:18.833Z,1013.01
2018-02-09T10:50:18.824Z,1012.99
2018-02-09T10:51:18.818Z,1012.97
2018-02-09T10:52:18.809Z,1013.06
2018-02-09T10:53:19.050Z,1012.96
2018-02-09T10:54:18.795Z,1012.95
2018-02-09T10:55:18.785Z,1013.03
2018-02-09T10:56:18.777Z,1013.03
2018-02-09T10:57:18.770Z,1012.96
2018-02-09T10:58:19.012Z,1012.97
2018-02-09T10:59:18.756Z,1012.99
2018-02-09T11:00:18.760Z,1013.01
2018-02-09T11:01:18.737Z,1012.99
2018-02-09T11:02:18.731Z,1012.99
2018-02-09T11:03:18.721Z,1012.98
2018-02-09T11:04:18.714Z,1012.96
2018-02-09T11:05:18.706Z,1012.95
2018-02-09T11:06:18.698Z,1012.93
2018-02-09T11:07:19.740Z,1012.97
2018-02-09T11:08:18.683Z,1012.94
2018-02-09T11:09:18.674Z,1012.97
2018-02-09T11:10:18.667Z,1012.94
2018-02-09T11:11:18.657Z,1013.00
2018-02-09T11:12:18.714Z,1012.94
2018-02-09T11:13:18.645Z,1012.96
2018-02-09T11:14:18.639Z,1012.93
2018-02-09T11:15:18.636Z,1012.97
2018-02-09T11:16:18.618Z,1012.93
2018-02-09T11:17:18.650Z,1012.96
2018-02-09T11:18:18.606Z,1012.94
2018-02-09T11:19:18.597Z,1012.89
2018-02-09T11:20:18.591Z,1012.91
2018-02-09T11:21:18.578Z,1012.87
2018-02-09T11:22:18.573Z,1012.90
2018-02-09T11:23:18.567Z,1012.90
2018-02-09T11:24:18.806Z,1012.86
2018-02-09T11:25:18.557Z,1012.83
2018-02-09T11:26:18.544Z,1012.82
2018-02-09T11:27:18.539Z,1012.76
2018-02-09T11:28:18.529Z,1012.80
2018-02-09T11:29:18.523Z,1012.78
2018-02-09T11:30:18.757Z,1012.76
2018-02-09T11:31:18.696Z,1012.78
2018-02-09T11:32:18.494Z,1012.78
2018-02-09T11:33:18.485Z,1012.80
2018-02-09T11:34:18.477Z,1012.77
2018-02-09T11:35:18.467Z,1012.77
2018-02-09T11:36:18.461Z,1012.77
2018-02-09T11:37:18.453Z,1012.74
2018-02-09T11:38:18.444Z,1012.72
2018-02-09T11:39:18.437Z,1012.75
2018-02-09T11:40:18.428Z,1012.78
2018-02-09T11:41:18.465Z,1012.77
2018-02-09T11:42:18.570Z,1012.77
2018-02-09T11:43:18.857Z,1012.75
2018-02-09T11:44:18.395Z,1012.74
2018-02-09T11:45:18.388Z,1012.72
2018-02-09T11:46:18.626Z,1012.70
2018-02-09T11:47:18.375Z,1012.75
2018-02-09T11:48:18.365Z,1012.71
2018-02-09T11:49:18.358Z,1012.72
2018-02-09T11:50:18.352Z,1012.68
2018-02-09T11:51:18.588Z,1012.64
2018-02-09T11:52:18.335Z,1012.63
2018-02-09T11:53:18.328Z,1012.63
2018-02-09T11:54:18.326Z,1012.63
2018-02-09T11:55:18.335Z,1012.64
2018-02-09T11:56:18.550Z,1012.67
2018-02-09T11:57:18.296Z,1012.62
2018-02-09T11:58:18.287Z,1012.60
2018-02-09T11:59:18.272Z,1012.60
2018-02-09T12:00:18.265Z,1012.56
2018-02-09T12:01:18.508Z,1012.60
2018-02-09T12:02:18.251Z,1012.55
2018-02-09T12:03:18.239Z,1012.57
2018-02-09T12:04:18.242Z,1012.54
2018-02-09T12:05:18.223Z,1012.58